sensor_id;sensor_type;location;lat;lon;timestamp;temperature;humidity
3794;DHT22;1912;51.358;12.282;2022-09-09T00:02:10;14.90;1.00
3794;DHT22;1912;51.358;12.282;2022-09-09T00:04:41;14.90;1.00
3794;DHT22;1912;51.358;12.282;2022-09-09T00:07:34;14.80;1.00
3794;DHT22;1912;51.358;12.282;2022-09-09T00:15:41;15.00;1.00
3794;DHT22;1912;51.358;12.282;2022-09-09T00:21:43;15.00;1.00
3794;DHT22;1912;51.358;12.282;2022-09-09T00:24:26;14.90;1.00
3794;DHT22;1912;51.358;12.282;2022-09-09T00:27:01;14.90;1.00
3794;DHT22;1912;51.358;12.282;2022-09-09T00:29:51;14.80;1.00
3794;DHT22;1912;51.358;12.282;2022-09-09T00:32:20;14.70;1.00
3794;DHT22;1912;51.358;12.282;2022-09-09T00:34:55;14.70;1.00
3794;DHT22;1912;51.358;12.282;2022-09-09T00:37:25;14.60;1.00
3794;DHT22;1912;51.358;12.282;2022-09-09T00:39:53;14.60;1.00
3794;DHT22;1912;51.358;12.282;2022-09-09T00:42:30;14.60;1.00
3794;DHT22;1912;51.358;12.282;2022-09-09T00:48:05;14.70;1.00
3794;DHT22;1912;51.358;12.282;2022-09-09T00:51:00;14.70;1.00
3794;DHT22;1912;51.358;12.282;2022-09-09T00:56:27;14.80;1.00
3794;DHT22;1912;51.358;12.282;2022-09-09T00:59:06;14.80;1.00
3794;DHT22;1912;51.358;12.282;2022-09-09T01:01:36;14.80;1.00
3794;DHT22;1912;51.358;12.282;2022-09-09T01:04:04;14.80;1.00
3794;DHT22;1912;51.358;12.282;2022-09-09T01:06:37;14.80;1.00
3794;DHT22;1912;51.358;12.282;2022-09-09T01:26:19;14.50;1.00
3794;DHT22;1912;51.358;12.282;2022-09-09T01:28:50;14.50;1.00
3794;DHT22;1912;51.358;12.282;2022-09-09T01:31:23;14.60;1.00
3794;DHT22;1912;51.358;12.282;2022-09-09T01:33:53;14.60;1.00
3794;DHT22;1912;51.358;12.282;2022-09-09T01:36:33;14.60;1.00
3794;DHT22;1912;51.358;12.282;2022-09-09T01:39:03;14.60;1.00
3794;DHT22;1912;51.358;12.282;2022-09-09T01:41:29;14.50;1.00
3794;DHT22;1912;51.358;12.282;2022-09-09T01:43:55;14.60;1.00
3794;DHT22;1912;51.358;12.282;2022-09-09T01:46:22;14.60;1.00
3794;DHT22;1912;51.358;12.282;2022-09-09T01:48:51;14.60;1.00
3794;DHT22;1912;51.358;12.282;2022-09-09T01:51:18;14.50;1.00
3794;DHT22;1912;51.358;12.282;2022-09-09T01:53:45;14.50;1.00
3794;DHT22;1912;51.358;12.282;2022-09-09T02:04:35;14.60;1.00
3794;DHT22;1912;51.358;12.282;2022-09-09T02:07:42;14.60;1.00
3794;DHT22;1912;51.358;12.282;2022-09-09T02:10:17;14.60;1.00
3794;DHT22;1912;51.358;12.282;2022-09-09T02:12:53;14.60;1.00
3794;DHT22;1912;51.358;12.282;2022-09-09T02:15:30;14.60;1.00
3794;DHT22;1912;51.358;12.282;2022-09-09T02:18:01;14.60;1.00
3794;DHT22;1912;51.358;12.282;2022-09-09T02:20:32;14.50;1.00
3794;DHT22;1912;51.358;12.282;2022-09-09T02:22:59;14.50;1.00
3794;DHT22;1912;51.358;12.282;2022-09-09T02:25:28;14.50;1.00
3794;DHT22;1912;51.358;12.282;2022-09-09T02:27:55;14.50;1.00
3794;DHT22;1912;51.358;12.282;2022-09-09T02:30:24;14.50;1.00
3794;DHT22;1912;51.358;12.282;2022-09-09T02:32:52;14.60;1.00
3794;DHT22;1912;51.358;12.282;2022-09-09T02:35:23;14.50;1.00
3794;DHT22;1912;51.358;12.282;2022-09-09T02:37:53;14.60;1.00
3794;DHT22;1912;51.358;12.282;2022-09-09T02:40:20;14.60;1.00
3794;DHT22;1912;51.358;12.282;2022-09-09T02:42:48;14.60;1.00
3794;DHT22;1912;51.358;12.282;2022-09-09T02:45:24;14.60;1.00
3794;DHT22;1912;51.358;12.282;2022-09-09T02:53:28;14.60;1.00
3794;DHT22;1912;51.358;12.282;2022-09-09T02:56:15;14.60;1.00
3794;DHT22;1912;51.358;12.282;2022-09-09T02:58:42;14.60;1.00
3794;DHT22;1912;51.358;12.282;2022-09-09T03:01:08;14.60;1.00
3794;DHT22;1912;51.358;12.282;2022-09-09T03:03:34;14.60;1.00
3794;DHT22;1912;51.358;12.282;2022-09-09T03:06:00;14.60;1.00
3794;DHT22;1912;51.358;12.282;2022-09-09T03:08:26;14.60;1.00
3794;DHT22;1912;51.358;12.282;2022-09-09T03:10:54;14.50;1.00
3794;DHT22;1912;51.358;12.282;2022-09-09T03:13:20;14.50;1.00
3794;DHT22;1912;51.358;12.282;2022-09-09T03:15:47;14.50;1.00
3794;DHT22;1912;51.358;12.282;2022-09-09T03:18:14;14.50;1.00
3794;DHT22;1912;51.358;12.282;2022-09-09T03:20:39;14.50;1.00
3794;DHT22;1912;51.358;12.282;2022-09-09T03:23:07;14.50;1.00
3794;DHT22;1912;51.358;12.282;2022-09-09T03:25:33;14.50;1.00
3794;DHT22;1912;51.358;12.282;2022-09-09T03:27:59;14.50;1.00
3794;DHT22;1912;51.358;12.282;2022-09-09T03:30:27;14.50;1.00
3794;DHT22;1912;51.358;12.282;2022-09-09T03:32:53;14.50;1.00
3794;DHT22;1912;51.358;12.282;2022-09-09T03:35:20;14.50;1.00
3794;DHT22;1912;51.358;12.282;2022-09-09T03:37:46;14.50;1.00
3794;DHT22;1912;51.358;12.282;2022-09-09T03:40:12;14.50;1.00
3794;DHT22;1912;51.358;12.282;2022-09-09T03:42:39;14.50;1.00
3794;DHT22;1912;51.358;12.282;2022-09-09T03:45:07;14.50;1.00
3794;DHT22;1912;51.358;12.282;2022-09-09T03:47:34;14.50;1.00
3794;DHT22;1912;51.358;12.282;2022-09-09T03:50:00;14.50;1.00
3794;DHT22;1912;51.358;12.282;2022-09-09T03:52:26;14.50;1.00
3794;DHT22;1912;51.358;12.282;2022-09-09T03:54:53;14.40;1.00
3794;DHT22;1912;51.358;12.282;2022-09-09T03:57:19;14.40;1.00
3794;DHT22;1912;51.358;12.282;2022-09-09T03:59:45;14.40;1.00
3794;DHT22;1912;51.358;12.282;2022-09-09T04:02:11;14.40;1.00
3794;DHT22;1912;51.358;12.282;2022-09-09T04:04:37;14.40;1.00
3794;DHT22;1912;51.358;12.282;2022-09-09T04:07:02;14.40;1.00
3794;DHT22;1912;51.358;12.282;2022-09-09T04:09:28;14.40;1.00
3794;DHT22;1912;51.358;12.282;2022-09-09T04:11:54;14.50;1.00
3794;DHT22;1912;51.358;12.282;2022-09-09T04:14:20;14.40;1.00
3794;DHT22;1912;51.358;12.282;2022-09-09T04:16:47;14.40;1.00
3794;DHT22;1912;51.358;12.282;2022-09-09T04:19:13;14.40;1.00
3794;DHT22;1912;51.358;12.282;2022-09-09T04:21:40;14.40;1.00
3794;DHT22;1912;51.358;12.282;2022-09-09T04:24:09;14.40;1.00
3794;DHT22;1912;51.358;12.282;2022-09-09T04:26:36;14.50;1.00
3794;DHT22;1912;51.358;12.282;2022-09-09T04:29:03;14.50;1.00
3794;DHT22;1912;51.358;12.282;2022-09-09T04:31:30;14.40;1.00
3794;DHT22;1912;51.358;12.282;2022-09-09T04:33:56;14.50;1.00
3794;DHT22;1912;51.358;12.282;2022-09-09T04:36:22;14.50;1.00
3794;DHT22;1912;51.358;12.282;2022-09-09T04:38:48;14.50;1.00
3794;DHT22;1912;51.358;12.282;2022-09-09T04:41:14;14.50;1.00
3794;DHT22;1912;51.358;12.282;2022-09-09T04:43:41;14.50;1.00
3794;DHT22;1912;51.358;12.282;2022-09-09T04:46:08;14.50;1.00
3794;DHT22;1912;51.358;12.282;2022-09-09T04:48:34;14.50;1.00
3794;DHT22;1912;51.358;12.282;2022-09-09T04:51:08;14.50;1.00
3794;DHT22;1912;51.358;12.282;2022-09-09T04:53:36;14.50;1.00
3794;DHT22;1912;51.358;12.282;2022-09-09T04:56:08;14.50;1.00
3794;DHT22;1912;51.358;12.282;2022-09-09T04:58:36;14.50;1.00
3794;DHT22;1912;51.358;12.282;2022-09-09T05:01:10;14.50;1.00
3794;DHT22;1912;51.358;12.282;2022-09-09T05:03:37;14.50;1.00
3794;DHT22;1912;51.358;12.282;2022-09-09T05:06:05;14.60;1.00
3794;DHT22;1912;51.358;12.282;2022-09-09T05:08:34;14.60;1.00
3794;DHT22;1912;51.358;12.282;2022-09-09T05:11:00;14.70;1.00
3794;DHT22;1912;51.358;12.282;2022-09-09T05:13:26;14.70;1.00
3794;DHT22;1912;51.358;12.282;2022-09-09T05:15:54;14.80;1.00
3794;DHT22;1912;51.358;12.282;2022-09-09T05:18:20;14.80;1.00
3794;DHT22;1912;51.358;12.282;2022-09-09T05:20:48;14.80;1.00
3794;DHT22;1912;51.358;12.282;2022-09-09T05:23:14;14.80;1.00
3794;DHT22;1912;51.358;12.282;2022-09-09T05:25:40;14.80;1.00
3794;DHT22;1912;51.358;12.282;2022-09-09T05:28:06;14.80;1.00
3794;DHT22;1912;51.358;12.282;2022-09-09T05:30:33;14.80;1.00
3794;DHT22;1912;51.358;12.282;2022-09-09T05:32:59;14.80;1.00
3794;DHT22;1912;51.358;12.282;2022-09-09T05:35:25;14.80;1.00
3794;DHT22;1912;51.358;12.282;2022-09-09T05:37:51;14.90;1.00
3794;DHT22;1912;51.358;12.282;2022-09-09T05:40:16;15.00;1.00
3794;DHT22;1912;51.358;12.282;2022-09-09T05:42:42;15.10;1.00
3794;DHT22;1912;51.358;12.282;2022-09-09T05:45:08;15.10;1.00
3794;DHT22;1912;51.358;12.282;2022-09-09T05:47:35;15.10;1.00
3794;DHT22;1912;51.358;12.282;2022-09-09T05:50:03;15.20;1.00
3794;DHT22;1912;51.358;12.282;2022-09-09T05:52:29;15.20;1.00
3794;DHT22;1912;51.358;12.282;2022-09-09T05:54:55;15.30;1.00
3794;DHT22;1912;51.358;12.282;2022-09-09T05:57:22;15.30;1.00
3794;DHT22;1912;51.358;12.282;2022-09-09T05:59:48;15.40;1.00
3794;DHT22;1912;51.358;12.282;2022-09-09T06:02:15;15.50;1.00
3794;DHT22;1912;51.358;12.282;2022-09-09T06:04:40;15.50;1.00
3794;DHT22;1912;51.358;12.282;2022-09-09T06:07:07;15.60;1.00
3794;DHT22;1912;51.358;12.282;2022-09-09T06:09:32;15.60;1.00
3794;DHT22;1912;51.358;12.282;2022-09-09T06:11:58;15.60;1.00
3794;DHT22;1912;51.358;12.282;2022-09-09T06:14:24;15.70;1.00
3794;DHT22;1912;51.358;12.282;2022-09-09T06:16:51;15.70;1.00
3794;DHT22;1912;51.358;12.282;2022-09-09T06:19:17;15.70;1.00
3794;DHT22;1912;51.358;12.282;2022-09-09T06:21:43;15.80;1.00
3794;DHT22;1912;51.358;12.282;2022-09-09T06:24:10;15.80;1.00
3794;DHT22;1912;51.358;12.282;2022-09-09T06:26:39;15.80;1.00
3794;DHT22;1912;51.358;12.282;2022-09-09T06:29:08;15.90;1.00
3794;DHT22;1912;51.358;12.282;2022-09-09T06:31:35;15.90;1.00
3794;DHT22;1912;51.358;12.282;2022-09-09T06:34:04;16.00;1.00
3794;DHT22;1912;51.358;12.282;2022-09-09T06:36:33;16.00;1.00
3794;DHT22;1912;51.358;12.282;2022-09-09T06:39:02;16.00;1.00
3794;DHT22;1912;51.358;12.282;2022-09-09T06:41:29;16.10;1.00
3794;DHT22;1912;51.358;12.282;2022-09-09T06:43:56;16.20;1.00
3794;DHT22;1912;51.358;12.282;2022-09-09T06:46:26;16.10;1.00
3794;DHT22;1912;51.358;12.282;2022-09-09T06:48:54;16.20;1.00
3794;DHT22;1912;51.358;12.282;2022-09-09T06:51:27;16.20;1.00
3794;DHT22;1912;51.358;12.282;2022-09-09T06:54:01;16.30;1.00
3794;DHT22;1912;51.358;12.282;2022-09-09T06:56:35;16.40;1.00
3794;DHT22;1912;51.358;12.282;2022-09-09T06:59:04;16.50;1.00
3794;DHT22;1912;51.358;12.282;2022-09-09T07:01:36;16.70;1.00
3794;DHT22;1912;51.358;12.282;2022-09-09T07:04:04;16.80;1.00
3794;DHT22;1912;51.358;12.282;2022-09-09T07:06:35;17.10;1.00
3794;DHT22;1912;51.358;12.282;2022-09-09T07:09:04;17.30;1.00
3794;DHT22;1912;51.358;12.282;2022-09-09T07:11:54;17.50;1.00
3794;DHT22;1912;51.358;12.282;2022-09-09T07:14:19;17.70;1.00
3794;DHT22;1912;51.358;12.282;2022-09-09T07:16:46;17.90;1.00
3794;DHT22;1912;51.358;12.282;2022-09-09T07:19:12;18.20;1.00
3794;DHT22;1912;51.358;12.282;2022-09-09T07:21:39;18.40;1.00
3794;DHT22;1912;51.358;12.282;2022-09-09T07:24:06;18.80;1.00
3794;DHT22;1912;51.358;12.282;2022-09-09T07:26:35;19.20;1.00
3794;DHT22;1912;51.358;12.282;2022-09-09T07:29:01;19.40;1.00
3794;DHT22;1912;51.358;12.282;2022-09-09T07:31:29;19.70;1.00
3794;DHT22;1912;51.358;12.282;2022-09-09T07:34:01;19.80;1.00
3794;DHT22;1912;51.358;12.282;2022-09-09T07:36:29;19.90;1.00
3794;DHT22;1912;51.358;12.282;2022-09-09T07:39:01;20.10;1.00
3794;DHT22;1912;51.358;12.282;2022-09-09T07:41:41;20.50;1.00
3794;DHT22;1912;51.358;12.282;2022-09-09T07:44:19;20.70;1.00
3794;DHT22;1912;51.358;12.282;2022-09-09T07:46:47;20.50;1.00
3794;DHT22;1912;51.358;12.282;2022-09-09T07:49:13;20.50;1.00
3794;DHT22;1912;51.358;12.282;2022-09-09T07:51:41;20.50;1.00
3794;DHT22;1912;51.358;12.282;2022-09-09T07:54:10;20.80;1.00
3794;DHT22;1912;51.358;12.282;2022-09-09T07:56:41;20.90;1.00
3794;DHT22;1912;51.358;12.282;2022-09-09T07:59:08;20.80;1.00
3794;DHT22;1912;51.358;12.282;2022-09-09T08:01:39;20.70;1.00
3794;DHT22;1912;51.358;12.282;2022-09-09T08:04:18;20.70;1.00
3794;DHT22;1912;51.358;12.282;2022-09-09T08:06:53;21.00;1.00
3794;DHT22;1912;51.358;12.282;2022-09-09T08:09:21;20.90;1.00
3794;DHT22;1912;51.358;12.282;2022-09-09T08:11:50;21.10;1.00
3794;DHT22;1912;51.358;12.282;2022-09-09T08:14:16;21.10;1.00
3794;DHT22;1912;51.358;12.282;2022-09-09T08:16:44;21.00;1.00
3794;DHT22;1912;51.358;12.282;2022-09-09T08:19:12;20.80;1.00
3794;DHT22;1912;51.358;12.282;2022-09-09T08:21:41;20.70;1.00
3794;DHT22;1912;51.358;12.282;2022-09-09T08:24:08;20.50;1.00
3794;DHT22;1912;51.358;12.282;2022-09-09T08:26:46;20.30;1.00
3794;DHT22;1912;51.358;12.282;2022-09-09T08:29:14;20.50;1.00
3794;DHT22;1912;51.358;12.282;2022-09-09T08:31:44;20.90;1.00
3794;DHT22;1912;51.358;12.282;2022-09-09T08:34:12;21.40;1.00
3794;DHT22;1912;51.358;12.282;2022-09-09T08:36:40;21.60;1.00
3794;DHT22;1912;51.358;12.282;2022-09-09T08:39:08;21.90;1.00
3794;DHT22;1912;51.358;12.282;2022-09-09T08:50:08;22.00;1.00
3794;DHT22;1912;51.358;12.282;2022-09-09T08:52:54;21.80;1.00
3794;DHT22;1912;51.358;12.282;2022-09-09T08:58:34;22.10;1.00
3794;DHT22;1912;51.358;12.282;2022-09-09T09:01:24;22.40;1.00
3794;DHT22;1912;51.358;12.282;2022-09-09T09:04:32;22.70;1.00
3794;DHT22;1912;51.358;12.282;2022-09-09T09:10:39;23.10;1.00
3794;DHT22;1912;51.358;12.282;2022-09-09T09:13:15;23.50;1.00
3794;DHT22;1912;51.358;12.282;2022-09-09T09:15:50;23.00;1.00
3794;DHT22;1912;51.358;12.282;2022-09-09T09:18:19;23.30;1.00
3794;DHT22;1912;51.358;12.282;2022-09-09T09:20:54;23.90;1.00
3794;DHT22;1912;51.358;12.282;2022-09-09T09:26:22;25.00;1.00
3794;DHT22;1912;51.358;12.282;2022-09-09T09:28:50;24.50;1.00
3794;DHT22;1912;51.358;12.282;2022-09-09T09:31:20;23.70;1.00
3794;DHT22;1912;51.358;12.282;2022-09-09T09:33:50;23.50;1.00
3794;DHT22;1912;51.358;12.282;2022-09-09T09:36:20;23.20;1.00
3794;DHT22;1912;51.358;12.282;2022-09-09T09:38:57;23.30;1.00
3794;DHT22;1912;51.358;12.282;2022-09-09T09:41:36;22.90;1.00
3794;DHT22;1912;51.358;12.282;2022-09-09T09:44:05;22.70;1.00
3794;DHT22;1912;51.358;12.282;2022-09-09T09:46:32;22.40;1.00
3794;DHT22;1912;51.358;12.282;2022-09-09T09:49:02;22.50;1.00
3794;DHT22;1912;51.358;12.282;2022-09-09T09:51:34;22.50;1.00
3794;DHT22;1912;51.358;12.282;2022-09-09T09:56:39;22.20;1.00
3794;DHT22;1912;51.358;12.282;2022-09-09T09:59:18;22.20;1.00
3794;DHT22;1912;51.358;12.282;2022-09-09T10:01:45;22.10;1.00
3794;DHT22;1912;51.358;12.282;2022-09-09T10:04:15;22.00;1.00
3794;DHT22;1912;51.358;12.282;2022-09-09T10:06:44;21.80;1.00
3794;DHT22;1912;51.358;12.282;2022-09-09T10:09:42;21.80;1.00
3794;DHT22;1912;51.358;12.282;2022-09-09T10:23:29;23.10;1.00
3794;DHT22;1912;51.358;12.282;2022-09-09T10:29:22;23.30;1.00
3794;DHT22;1912;51.358;12.282;2022-09-09T10:32:17;23.60;1.00
3794;DHT22;1912;51.358;12.282;2022-09-09T10:43:51;24.20;1.00
3794;DHT22;1912;51.358;12.282;2022-09-09T10:46:50;24.40;1.00
3794;DHT22;1912;51.358;12.282;2022-09-09T10:55:20;25.20;1.00
3794;DHT22;1912;51.358;12.282;2022-09-09T10:57:48;25.50;1.00
3794;DHT22;1912;51.358;12.282;2022-09-09T11:00:25;25.70;1.00
3794;DHT22;1912;51.358;12.282;2022-09-09T11:03:02;25.90;1.00
3794;DHT22;1912;51.358;12.282;2022-09-09T11:05:40;25.00;1.00
3794;DHT22;1912;51.358;12.282;2022-09-09T11:08:14;24.60;1.00
3794;DHT22;1912;51.358;12.282;2022-09-09T11:10:57;24.60;1.00
3794;DHT22;1912;51.358;12.282;2022-09-09T11:16:32;24.70;1.00
3794;DHT22;1912;51.358;12.282;2022-09-09T11:19:24;25.00;1.00
3794;DHT22;1912;51.358;12.282;2022-09-09T11:22:02;24.90;1.00
3794;DHT22;1912;51.358;12.282;2022-09-09T11:24:37;24.80;1.00
3794;DHT22;1912;51.358;12.282;2022-09-09T11:27:21;24.60;1.00
3794;DHT22;1912;51.358;12.282;2022-09-09T11:30:19;24.50;1.00
3794;DHT22;1912;51.358;12.282;2022-09-09T11:36:03;23.80;1.00
3794;DHT22;1912;51.358;12.282;2022-09-09T11:39:01;24.30;1.00
3794;DHT22;1912;51.358;12.282;2022-09-09T11:41:37;24.70;1.00
3794;DHT22;1912;51.358;12.282;2022-09-09T11:44:34;25.20;1.00
3794;DHT22;1912;51.358;12.282;2022-09-09T11:46:59;25.30;1.00
3794;DHT22;1912;51.358;12.282;2022-09-09T11:52:11;25.40;1.00
3794;DHT22;1912;51.358;12.282;2022-09-09T11:54:48;25.70;1.00
3794;DHT22;1912;51.358;12.282;2022-09-09T11:57:44;25.70;1.00
3794;DHT22;1912;51.358;12.282;2022-09-09T12:00:34;25.70;1.00
3794;DHT22;1912;51.358;12.282;2022-09-09T12:03:05;26.00;1.00
3794;DHT22;1912;51.358;12.282;2022-09-09T12:05:40;26.00;1.00
3794;DHT22;1912;51.358;12.282;2022-09-09T12:08:11;26.00;1.00
3794;DHT22;1912;51.358;12.282;2022-09-09T12:10:40;25.40;1.00
3794;DHT22;1912;51.358;12.282;2022-09-09T12:13:24;25.30;1.00
3794;DHT22;1912;51.358;12.282;2022-09-09T12:15:53;25.30;1.00
3794;DHT22;1912;51.358;12.282;2022-09-09T12:18:33;24.70;1.00
3794;DHT22;1912;51.358;12.282;2022-09-09T12:21:11;25.30;1.00
3794;DHT22;1912;51.358;12.282;2022-09-09T12:23:51;25.90;1.00
3794;DHT22;1912;51.358;12.282;2022-09-09T12:29:14;26.70;1.00
3794;DHT22;1912;51.358;12.282;2022-09-09T12:32:15;27.10;1.00
3794;DHT22;1912;51.358;12.282;2022-09-09T12:35:00;26.50;1.00
3794;DHT22;1912;51.358;12.282;2022-09-09T12:38:00;26.50;1.00
3794;DHT22;1912;51.358;12.282;2022-09-09T12:40:30;26.90;1.00
3794;DHT22;1912;51.358;12.282;2022-09-09T12:42:58;26.60;1.00
3794;DHT22;1912;51.358;12.282;2022-09-09T12:45:29;26.60;1.00
3794;DHT22;1912;51.358;12.282;2022-09-09T12:48:00;26.40;1.00
3794;DHT22;1912;51.358;12.282;2022-09-09T12:50:31;25.70;1.00
3794;DHT22;1912;51.358;12.282;2022-09-09T12:53:00;25.80;1.00
3794;DHT22;1912;51.358;12.282;2022-09-09T12:55:35;26.10;1.00
3794;DHT22;1912;51.358;12.282;2022-09-09T12:58:04;25.80;1.00
3794;DHT22;1912;51.358;12.282;2022-09-09T13:00:32;26.20;1.00
3794;DHT22;1912;51.358;12.282;2022-09-09T13:03:01;26.50;1.00
3794;DHT22;1912;51.358;12.282;2022-09-09T13:05:36;26.80;1.00
3794;DHT22;1912;51.358;12.282;2022-09-09T13:08:06;27.10;1.00
3794;DHT22;1912;51.358;12.282;2022-09-09T13:11:03;27.50;1.00
3794;DHT22;1912;51.358;12.282;2022-09-09T13:13:41;27.20;1.00
3794;DHT22;1912;51.358;12.282;2022-09-09T13:18:52;27.40;1.00
3794;DHT22;1912;51.358;12.282;2022-09-09T13:21:18;26.90;1.00
3794;DHT22;1912;51.358;12.282;2022-09-09T13:23:49;26.10;1.00
3794;DHT22;1912;51.358;12.282;2022-09-09T13:26:25;25.60;1.00
3794;DHT22;1912;51.358;12.282;2022-09-09T13:28:53;25.40;1.00
3794;DHT22;1912;51.358;12.282;2022-09-09T13:34:30;25.20;1.00
3794;DHT22;1912;51.358;12.282;2022-09-09T13:37:05;24.50;1.00
3794;DHT22;1912;51.358;12.282;2022-09-09T13:39:53;24.30;1.00
3794;DHT22;1912;51.358;12.282;2022-09-09T13:42:28;24.10;1.00
3794;DHT22;1912;51.358;12.282;2022-09-09T13:44:59;24.20;1.00
3794;DHT22;1912;51.358;12.282;2022-09-09T13:47:34;24.10;1.00
3794;DHT22;1912;51.358;12.282;2022-09-09T13:50:25;24.00;1.00
3794;DHT22;1912;51.358;12.282;2022-09-09T13:52:56;23.80;1.00
3794;DHT22;1912;51.358;12.282;2022-09-09T13:55:27;23.70;1.00
3794;DHT22;1912;51.358;12.282;2022-09-09T13:57:55;23.70;1.00
3794;DHT22;1912;51.358;12.282;2022-09-09T14:00:24;24.00;1.00
3794;DHT22;1912;51.358;12.282;2022-09-09T14:02:50;24.10;1.00
3794;DHT22;1912;51.358;12.282;2022-09-09T14:05:18;23.80;1.00
3794;DHT22;1912;51.358;12.282;2022-09-09T14:07:44;23.90;1.00
3794;DHT22;1912;51.358;12.282;2022-09-09T14:10:13;24.00;1.00
3794;DHT22;1912;51.358;12.282;2022-09-09T14:12:39;24.20;1.00
3794;DHT22;1912;51.358;12.282;2022-09-09T14:15:06;24.20;1.00
3794;DHT22;1912;51.358;12.282;2022-09-09T14:17:33;24.20;1.00
3794;DHT22;1912;51.358;12.282;2022-09-09T14:20:05;24.20;1.00
3794;DHT22;1912;51.358;12.282;2022-09-09T14:22:33;23.80;1.00
3794;DHT22;1912;51.358;12.282;2022-09-09T14:24:59;23.80;1.00
3794;DHT22;1912;51.358;12.282;2022-09-09T14:27:24;23.70;1.00
3794;DHT22;1912;51.358;12.282;2022-09-09T14:29:52;23.60;1.00
3794;DHT22;1912;51.358;12.282;2022-09-09T14:32:18;23.40;1.00
3794;DHT22;1912;51.358;12.282;2022-09-09T14:34:44;23.40;1.00
3794;DHT22;1912;51.358;12.282;2022-09-09T14:37:12;23.10;1.00
3794;DHT22;1912;51.358;12.282;2022-09-09T14:39:41;23.00;1.00
3794;DHT22;1912;51.358;12.282;2022-09-09T14:42:09;22.80;1.00
3794;DHT22;1912;51.358;12.282;2022-09-09T14:44:36;22.60;1.00
3794;DHT22;1912;51.358;12.282;2022-09-09T14:47:04;22.50;1.00
3794;DHT22;1912;51.358;12.282;2022-09-09T14:49:30;22.50;1.00
3794;DHT22;1912;51.358;12.282;2022-09-09T14:51:56;22.80;1.00
3794;DHT22;1912;51.358;12.282;2022-09-09T14:54:25;23.20;1.00
3794;DHT22;1912;51.358;12.282;2022-09-09T14:56:51;23.60;1.00
3794;DHT22;1912;51.358;12.282;2022-09-09T14:59:16;24.10;1.00
3794;DHT22;1912;51.358;12.282;2022-09-09T15:01:42;24.20;1.00
3794;DHT22;1912;51.358;12.282;2022-09-09T15:04:12;24.40;1.00
3794;DHT22;1912;51.358;12.282;2022-09-09T15:06:47;24.40;1.00
3794;DHT22;1912;51.358;12.282;2022-09-09T15:09:17;24.30;1.00
3794;DHT22;1912;51.358;12.282;2022-09-09T15:11:43;24.20;1.00
3794;DHT22;1912;51.358;12.282;2022-09-09T15:14:14;24.50;1.00
3794;DHT22;1912;51.358;12.282;2022-09-09T15:16:40;24.60;1.00
3794;DHT22;1912;51.358;12.282;2022-09-09T15:19:06;24.80;1.00
3794;DHT22;1912;51.358;12.282;2022-09-09T15:21:35;24.80;1.00
3794;DHT22;1912;51.358;12.282;2022-09-09T15:24:02;24.70;1.00
3794;DHT22;1912;51.358;12.282;2022-09-09T15:26:29;24.70;1.00
3794;DHT22;1912;51.358;12.282;2022-09-09T15:28:55;24.80;1.00
3794;DHT22;1912;51.358;12.282;2022-09-09T15:31:29;24.60;1.00
3794;DHT22;1912;51.358;12.282;2022-09-09T15:33:57;24.50;1.00
3794;DHT22;1912;51.358;12.282;2022-09-09T15:36:40;24.50;1.00
3794;DHT22;1912;51.358;12.282;2022-09-09T15:39:08;24.70;1.00
3794;DHT22;1912;51.358;12.282;2022-09-09T15:41:41;24.30;1.00
3794;DHT22;1912;51.358;12.282;2022-09-09T15:44:08;24.00;1.00
3794;DHT22;1912;51.358;12.282;2022-09-09T15:46:51;24.00;1.00
3794;DHT22;1912;51.358;12.282;2022-09-09T15:49:25;24.10;1.00
3794;DHT22;1912;51.358;12.282;2022-09-09T15:51:53;24.00;1.00
3794;DHT22;1912;51.358;12.282;2022-09-09T15:54:25;23.70;1.00
3794;DHT22;1912;51.358;12.282;2022-09-09T15:56:54;23.70;1.00
3794;DHT22;1912;51.358;12.282;2022-09-09T15:59:24;23.60;1.00
3794;DHT22;1912;51.358;12.282;2022-09-09T16:01:51;23.70;1.00
3794;DHT22;1912;51.358;12.282;2022-09-09T16:04:21;23.50;1.00
3794;DHT22;1912;51.358;12.282;2022-09-09T16:06:51;23.40;1.00
3794;DHT22;1912;51.358;12.282;2022-09-09T16:09:19;23.30;1.00
3794;DHT22;1912;51.358;12.282;2022-09-09T16:11:45;23.20;1.00
3794;DHT22;1912;51.358;12.282;2022-09-09T16:14:12;23.10;1.00
3794;DHT22;1912;51.358;12.282;2022-09-09T16:16:38;23.20;1.00
3794;DHT22;1912;51.358;12.282;2022-09-09T16:19:09;23.00;1.00
3794;DHT22;1912;51.358;12.282;2022-09-09T16:21:40;22.90;1.00
3794;DHT22;1912;51.358;12.282;2022-09-09T16:24:09;22.70;1.00
3794;DHT22;1912;51.358;12.282;2022-09-09T16:26:38;22.60;1.00
3794;DHT22;1912;51.358;12.282;2022-09-09T16:29:05;22.50;1.00
3794;DHT22;1912;51.358;12.282;2022-09-09T16:31:32;22.40;1.00
3794;DHT22;1912;51.358;12.282;2022-09-09T16:33:57;22.30;1.00
3794;DHT22;1912;51.358;12.282;2022-09-09T16:36:25;22.30;1.00
3794;DHT22;1912;51.358;12.282;2022-09-09T16:38:54;22.10;1.00
3794;DHT22;1912;51.358;12.282;2022-09-09T16:41:24;22.00;1.00
3794;DHT22;1912;51.358;12.282;2022-09-09T16:43:56;22.10;1.00
3794;DHT22;1912;51.358;12.282;2022-09-09T16:46:25;21.90;1.00
3794;DHT22;1912;51.358;12.282;2022-09-09T16:48:53;21.80;1.00
3794;DHT22;1912;51.358;12.282;2022-09-09T16:51:22;21.70;1.00
3794;DHT22;1912;51.358;12.282;2022-09-09T16:53:58;21.70;1.00
3794;DHT22;1912;51.358;12.282;2022-09-09T16:56:27;21.60;1.00
3794;DHT22;1912;51.358;12.282;2022-09-09T16:58:57;21.60;1.00
3794;DHT22;1912;51.358;12.282;2022-09-09T17:01:25;21.90;1.00
3794;DHT22;1912;51.358;12.282;2022-09-09T17:03:57;21.90;1.00
3794;DHT22;1912;51.358;12.282;2022-09-09T17:06:26;21.80;1.00
3794;DHT22;1912;51.358;12.282;2022-09-09T17:08:54;21.60;1.00
3794;DHT22;1912;51.358;12.282;2022-09-09T17:11:21;21.50;1.00
3794;DHT22;1912;51.358;12.282;2022-09-09T17:13:48;21.40;1.00
3794;DHT22;1912;51.358;12.282;2022-09-09T17:16:16;21.30;1.00
3794;DHT22;1912;51.358;12.282;2022-09-09T17:18:43;21.20;1.00
3794;DHT22;1912;51.358;12.282;2022-09-09T17:21:16;21.10;1.00
3794;DHT22;1912;51.358;12.282;2022-09-09T17:23:44;21.00;1.00
3794;DHT22;1912;51.358;12.282;2022-09-09T17:26:12;20.90;1.00
3794;DHT22;1912;51.358;12.282;2022-09-09T17:28:43;20.90;1.00
3794;DHT22;1912;51.358;12.282;2022-09-09T17:31:12;20.80;1.00
3794;DHT22;1912;51.358;12.282;2022-09-09T17:33:44;20.70;1.00
3794;DHT22;1912;51.358;12.282;2022-09-09T17:36:17;20.70;1.00
3794;DHT22;1912;51.358;12.282;2022-09-09T17:38:45;20.60;1.00
3794;DHT22;1912;51.358;12.282;2022-09-09T17:41:18;20.60;1.00
3794;DHT22;1912;51.358;12.282;2022-09-09T17:43:46;20.50;1.00
3794;DHT22;1912;51.358;12.282;2022-09-09T17:46:21;20.40;1.00
3794;DHT22;1912;51.358;12.282;2022-09-09T17:48:50;20.30;1.00
3794;DHT22;1912;51.358;12.282;2022-09-09T17:51:21;20.20;1.00
3794;DHT22;1912;51.358;12.282;2022-09-09T17:53:53;20.00;1.00
3794;DHT22;1912;51.358;12.282;2022-09-09T17:56:21;20.00;1.00
3794;DHT22;1912;51.358;12.282;2022-09-09T17:58:49;19.90;1.00
3794;DHT22;1912;51.358;12.282;2022-09-09T18:01:20;19.80;1.00
3794;DHT22;1912;51.358;12.282;2022-09-09T18:03:52;19.80;1.00
3794;DHT22;1912;51.358;12.282;2022-09-09T18:06:21;19.80;1.00
3794;DHT22;1912;51.358;12.282;2022-09-09T18:08:56;19.80;1.00
3794;DHT22;1912;51.358;12.282;2022-09-09T18:11:26;19.70;1.00
3794;DHT22;1912;51.358;12.282;2022-09-09T18:13:55;19.60;1.00
3794;DHT22;1912;51.358;12.282;2022-09-09T18:16:25;19.60;1.00
3794;DHT22;1912;51.358;12.282;2022-09-09T18:18:54;19.70;1.00
3794;DHT22;1912;51.358;12.282;2022-09-09T18:21:20;19.70;1.00